createdAt,value
2018-09-01T00:00:01.803Z,9.38
2018-09-01T00:01:02.045Z,9.24
2018-09-01T00:02:02.279Z,9.17
2018-09-01T00:03:02.518Z,9.17
2018-09-01T00:04:02.759Z,9.13
2018-09-01T00:05:02.995Z,9.13
2018-09-01T00:06:03.226Z,9.14
2018-09-01T00:07:03.465Z,9.02
2018-09-01T00:08:03.703Z,8.98
2018-09-01T00:09:03.942Z,8.94
2018-09-01T00:10:04.180Z,8.96
2018-09-01T00:11:04.468Z,8.96
2018-09-01T00:12:04.657Z,8.91
2018-09-01T00:13:04.896Z,8.92
2018-09-01T00:14:05.137Z,8.89
2018-09-01T00:15:05.372Z,8.89
2018-09-01T00:16:05.614Z,8.83
2018-09-01T00:17:05.853Z,8.81
2018-09-01T00:18:06.085Z,8.91
2018-09-01T00:19:06.329Z,8.98
2018-09-01T00:20:06.566Z,8.95
2018-09-01T00:21:06.804Z,8.95
2018-09-01T00:22:07.042Z,8.84
2018-09-01T00:23:07.282Z,8.98
2018-09-01T00:24:07.520Z,8.99
2018-09-01T00:25:07.758Z,8.91
2018-09-01T00:26:07.996Z,9.04
2018-09-01T00:27:08.236Z,9.04
2018-09-01T00:28:08.477Z,9.10
2018-09-01T00:29:08.714Z,8.95
2018-09-01T00:30:08.954Z,9.08
2018-09-01T00:31:09.196Z,8.91
2018-09-01T00:32:09.431Z,8.94
2018-09-01T00:33:09.670Z,9.02
2018-09-01T00:34:09.909Z,8.92
2018-09-01T00:35:10.146Z,8.92
2018-09-01T00:36:10.390Z,8.98
2018-09-01T00:37:10.624Z,8.92
2018-09-01T00:38:10.863Z,9.10
2018-09-01T00:39:11.106Z,9.02
2018-09-01T00:40:11.339Z,9.05
2018-09-01T00:41:11.576Z,9.08
2018-09-01T00:42:11.816Z,9.04
2018-09-01T00:43:12.055Z,8.94
2018-09-01T00:44:12.294Z,9.05
2018-09-01T00:45:12.543Z,8.92
2018-09-01T00:46:12.764Z,9.08
2018-09-01T00:47:13.001Z,9.08
2018-09-01T00:48:13.239Z,8.87
2018-09-01T00:49:21.101Z,8.95
2018-09-01T00:50:21.410Z,8.95
2018-09-01T00:51:14.077Z,8.94
2018-09-01T00:52:14.315Z,8.89
2018-09-01T00:53:14.552Z,8.87
2018-09-01T00:54:14.792Z,8.84
2018-09-01T00:55:15.032Z,8.89
2018-09-01T00:56:15.268Z,8.87
2018-09-01T00:57:15.504Z,8.73
2018-09-01T00:58:15.744Z,8.68
2018-09-01T00:59:15.980Z,8.77
2018-09-01T01:00:16.217Z,8.84
2018-09-01T01:01:16.455Z,8.89
2018-09-01T01:02:16.691Z,8.84
2018-09-01T01:03:16.929Z,8.81
2018-09-01T01:04:17.165Z,8.81
2018-09-01T01:05:17.401Z,8.71
2018-09-01T01:06:17.640Z,8.70
2018-09-01T01:07:17.880Z,8.62
2018-09-01T01:08:25.761Z,8.73
2018-09-01T01:09:18.429Z,8.63
2018-09-01T01:10:18.666Z,8.56
2018-09-01T01:11:18.905Z,8.58
2018-09-01T01:12:19.142Z,8.55
2018-09-01T01:13:19.381Z,8.50
2018-09-01T01:14:19.617Z,8.48
2018-09-01T01:15:19.854Z,8.45
2018-09-01T01:16:20.091Z,8.45
2018-09-01T01:17:20.329Z,8.41
2018-09-01T01:18:20.570Z,8.37
2018-09-01T01:19:20.808Z,8.43
2018-09-01T01:20:21.046Z,8.43
2018-09-01T01:21:21.281Z,8.48
2018-09-01T01:22:21.519Z,8.43
2018-09-01T01:23:21.759Z,8.43
2018-09-01T01:24:21.995Z,8.44
2018-09-01T01:25:22.234Z,8.41
2018-09-01T01:26:22.470Z,8.47
2018-09-01T01:27:22.709Z,8.45
2018-09-01T01:28:22.944Z,8.48
2018-09-01T01:29:23.179Z,8.50
2018-09-01T01:30:23.424Z,8.47
2018-09-01T01:31:23.656Z,8.52
2018-09-01T01:32:23.893Z,8.47
2018-09-01T01:33:24.131Z,8.50
2018-09-01T01:34:24.368Z,8.50
2018-09-01T01:35:24.607Z,8.52
2018-09-01T01:36:24.848Z,8.48
2018-09-01T01:37:25.082Z,8.45
2018-09-01T01:38:25.320Z,8.37
2018-09-01T01:39:25.557Z,8.34
2018-09-01T01:40:25.795Z,8.34
2018-09-01T01:41:26.032Z,8.36
2018-09-01T01:42:26.268Z,8.29
2018-09-01T01:43:26.505Z,8.34
2018-09-01T01:44:26.744Z,8.36
2018-09-01T01:45:26.981Z,8.28
2018-09-01T01:46:27.216Z,8.20
2018-09-01T01:47:27.458Z,8.23
2018-09-01T01:48:27.692Z,8.22
2018-09-01T01:49:27.981Z,8.28
2018-09-01T01:50:28.168Z,8.22
2018-09-01T01:51:28.404Z,8.22
2018-09-01T01:52:28.642Z,8.25
2018-09-01T01:53:28.887Z,8.25
2018-09-01T01:54:29.113Z,8.23
2018-09-01T01:55:29.353Z,8.11
2018-09-01T01:56:29.587Z,8.07
2018-09-01T01:57:29.824Z,8.10
2018-09-01T01:58:30.059Z,8.11
2018-09-01T01:59:30.297Z,8.11
2018-09-01T02:00:30.551Z,8.04
2018-09-01T02:01:30.776Z,7.95
2018-09-01T02:02:31.013Z,7.92
2018-09-01T02:03:31.252Z,8.02
2018-09-01T02:04:31.490Z,8.05
2018-09-01T02:05:31.728Z,7.97
2018-09-01T02:06:31.967Z,7.89
2018-09-01T02:07:32.206Z,7.95
2018-09-01T02:08:32.440Z,7.92
2018-09-01T02:09:32.682Z,7.87
2018-09-01T02:10:32.921Z,7.86
2018-09-01T02:11:33.152Z,7.72
2018-09-01T02:12:33.389Z,7.74
2018-09-01T02:13:33.629Z,7.71
2018-09-01T02:14:33.871Z,7.69
2018-09-01T02:15:34.109Z,7.68
2018-09-01T02:16:34.344Z,7.67
2018-09-01T02:17:34.581Z,7.64
2018-09-01T02:18:34.821Z,7.63
2018-09-01T02:19:35.057Z,7.52
2018-09-01T02:20:35.295Z,7.53
2018-09-01T02:21:35.534Z,7.52
2018-09-01T02:22:35.761Z,7.53
2018-09-01T02:23:36.000Z,7.42
2018-09-01T02:24:36.237Z,7.16
2018-09-01T02:25:36.474Z,7.15
2018-09-01T02:26:36.711Z,7.17
2018-09-01T02:27:36.949Z,7.21
2018-09-01T02:28:37.186Z,7.03
2018-09-01T02:29:37.423Z,7.20
2018-09-01T02:30:37.651Z,7.34
2018-09-01T02:31:37.888Z,7.31
2018-09-01T02:32:38.125Z,7.28
2018-09-01T02:33:38.376Z,7.45
2018-09-01T02:34:38.597Z,7.42
2018-09-01T02:35:38.838Z,7.34
2018-09-01T02:36:39.078Z,7.27
2018-09-01T02:37:39.315Z,7.34
2018-09-01T02:38:39.551Z,7.30
2018-09-01T02:39:39.792Z,7.31
2018-09-01T02:40:40.026Z,7.35
2018-09-01T02:41:40.249Z,7.34
2018-09-01T02:42:40.504Z,7.31
2018-09-01T02:43:40.745Z,7.31
2018-09-01T02:44:40.982Z,7.32
2018-09-01T02:45:41.225Z,7.34
2018-09-01T02:46:41.458Z,7.24
2018-09-01T02:47:41.696Z,7.31
2018-09-01T02:48:41.930Z,7.31
2018-09-01T02:49:42.168Z,7.20
2018-09-01T02:50:42.413Z,7.24
2018-09-01T02:51:42.639Z,7.34
2018-09-01T02:52:42.875Z,7.25
2018-09-01T02:53:50.733Z,7.25
2018-09-01T02:54:43.402Z,7.30
2018-09-01T02:55:43.643Z,7.30
2018-09-01T02:56:43.881Z,7.37
2018-09-01T02:57:44.108Z,7.35
2018-09-01T02:58:44.350Z,7.39
2018-09-01T02:59:44.583Z,7.49
2018-09-01T03:00:44.819Z,7.46
2018-09-01T03:01:45.054Z,7.49
2018-09-01T03:02:45.293Z,7.42
2018-09-01T03:03:45.534Z,7.30
2018-09-01T03:04:45.771Z,7.30
2018-09-01T03:05:46.008Z,7.31
2018-09-01T03:06:46.245Z,7.34
2018-09-01T03:07:46.483Z,7.31
2018-09-01T03:08:46.721Z,7.28
2018-09-01T03:09:46.960Z,7.40
2018-09-01T03:10:47.194Z,7.27
2018-09-01T03:11:47.440Z,7.39
2018-09-01T03:12:47.664Z,7.49
2018-09-01T03:13:47.901Z,7.61
2018-09-01T03:14:48.140Z,7.63
2018-09-01T03:15:48.374Z,7.67
2018-09-01T03:16:48.619Z,7.77
2018-09-01T03:17:48.849Z,7.82
2018-09-01T03:18:49.082Z,7.90
2018-09-01T03:19:49.321Z,7.95
2018-09-01T03:20:49.572Z,7.97
2018-09-01T03:21:49.795Z,7.87
2018-09-01T03:22:50.035Z,7.82
2018-09-01T03:23:50.272Z,7.75
2018-09-01T03:24:50.527Z,7.72
2018-09-01T03:25:58.370Z,7.75
2018-09-01T03:26:51.040Z,7.71
2018-09-01T03:27:51.279Z,7.71
2018-09-01T03:28:51.513Z,7.63
2018-09-01T03:29:51.753Z,7.72
2018-09-01T03:30:51.988Z,7.61
2018-09-01T03:31:52.225Z,7.64
2018-09-01T03:32:52.467Z,7.49
2018-09-01T03:33:52.702Z,7.48
2018-09-01T03:34:52.935Z,7.43
2018-09-01T03:35:53.175Z,7.46
2018-09-01T03:36:53.411Z,7.39
2018-09-01T03:37:53.645Z,7.35
2018-09-01T03:38:53.880Z,7.28
2018-09-01T03:39:54.116Z,7.31
2018-09-01T03:40:54.343Z,7.21
2018-09-01T03:41:54.585Z,7.17
2018-09-01T03:42:54.824Z,7.12
2018-09-01T03:43:55.059Z,7.17
2018-09-01T03:44:55.298Z,7.06
2018-09-01T03:45:55.539Z,7.03
2018-09-01T03:46:55.775Z,6.98
2018-09-01T03:47:56.009Z,7.06
2018-09-01T03:48:56.245Z,6.91
2018-09-01T03:49:56.480Z,6.99
2018-09-01T03:50:56.717Z,6.94
2018-09-01T03:51:56.955Z,7.03
2018-09-01T03:52:57.188Z,6.55
2018-09-01T03:53:57.429Z,6.46
2018-09-01T03:54:57.667Z,6.41
2018-09-01T03:55:57.911Z,6.48
2018-09-01T03:56:58.143Z,6.49
2018-09-01T03:57:58.381Z,6.54
2018-09-01T03:58:58.613Z,6.55
2018-09-01T03:59:58.853Z,6.54
2018-09-01T04:00:59.086Z,6.64
2018-09-01T04:01:59.326Z,6.71
2018-09-01T04:02:59.558Z,6.81
2018-09-01T04:03:59.790Z,6.91
2018-09-01T04:05:00.024Z,6.95
2018-09-01T04:06:00.260Z,6.99
2018-09-01T04:07:00.496Z,7.09
2018-09-01T04:08:00.735Z,7.09
2018-09-01T04:09:00.968Z,7.10
2018-09-01T04:10:01.206Z,7.07
2018-09-01T04:11:01.435Z,7.07
2018-09-01T04:12:01.684Z,7.20
2018-09-01T04:13:01.916Z,7.31
2018-09-01T04:14:02.175Z,7.34
2018-09-01T04:15:02.384Z,7.31
2018-09-01T04:16:02.622Z,7.31
2018-09-01T04:17:02.861Z,7.30
2018-09-01T04:18:03.095Z,7.16
2018-09-01T04:19:03.332Z,7.17
2018-09-01T04:20:03.568Z,7.07
2018-09-01T04:21:03.810Z,7.05
2018-09-01T04:22:04.034Z,6.99
2018-09-01T04:23:04.269Z,6.95
2018-09-01T04:24:04.507Z,6.92
2018-09-01T04:25:04.748Z,7.02
2018-09-01T04:26:04.980Z,7.06
2018-09-01T04:27:05.212Z,6.97
2018-09-01T04:28:05.449Z,7.02
2018-09-01T04:29:05.684Z,6.98
2018-09-01T04:30:05.924Z,6.92
2018-09-01T04:31:06.156Z,6.91
2018-09-01T04:32:06.409Z,6.92
2018-09-01T04:33:06.638Z,6.87
2018-09-01T04:34:06.871Z,6.89
2018-09-01T04:35:07.113Z,6.84
2018-09-01T04:36:07.353Z,6.88
2018-09-01T04:37:07.575Z,6.87
2018-09-01T04:38:07.802Z,6.99
2018-09-01T04:39:08.046Z,6.99
2018-09-01T04:40:08.285Z,7.03
2018-09-01T04:41:08.524Z,7.03
2018-09-01T04:42:08.764Z,7.03
2018-09-01T04:43:08.994Z,7.05
2018-09-01T04:44:09.233Z,7.06
2018-09-01T04:45:09.467Z,6.98
2018-09-01T04:46:09.721Z,6.98
2018-09-01T04:47:09.988Z,7.06
2018-09-01T04:48:10.175Z,7.06
2018-09-01T04:49:10.412Z,7.06
2018-09-01T04:50:10.645Z,7.05
2018-09-01T04:51:10.876Z,6.98
2018-09-01T04:52:11.126Z,6.94
2018-09-01T04:53:11.348Z,6.99
2018-09-01T04:54:11.576Z,7.02
2018-09-01T04:55:11.815Z,6.98
2018-09-01T04:56:12.053Z,6.99
2018-09-01T04:57:12.289Z,6.99
2018-09-01T04:58:12.526Z,6.94
2018-09-01T04:59:12.762Z,6.97
2018-09-01T05:00:12.999Z,6.97
2018-09-01T05:01:13.443Z,6.97
2018-09-01T05:02:13.463Z,7.06
2018-09-01T05:03:13.700Z,7.06
2018-09-01T05:04:13.943Z,7.09
2018-09-01T05:05:14.169Z,7.09
2018-09-01T05:06:14.407Z,7.09
2018-09-01T05:07:14.634Z,7.17
2018-09-01T05:08:14.874Z,7.07
2018-09-01T05:09:15.111Z,7.16
2018-09-01T05:10:15.346Z,7.12
2018-09-01T05:11:15.582Z,7.13
2018-09-01T05:12:15.826Z,7.05
2018-09-01T05:13:16.053Z,7.13
2018-09-01T05:14:16.290Z,7.06
2018-09-01T05:15:16.529Z,6.99
2018-09-01T05:16:16.772Z,6.95
2018-09-01T05:17:17.002Z,6.97
2018-09-01T05:18:17.239Z,7.05
2018-09-01T05:19:17.464Z,7.05
2018-09-01T05:20:17.700Z,7.06
2018-09-01T05:21:17.937Z,7.06
2018-09-01T05:22:18.178Z,7.13
2018-09-01T05:23:18.406Z,7.06
2018-09-01T05:24:18.635Z,7.17
2018-09-01T05:25:18.872Z,7.15
2018-09-01T05:26:19.110Z,7.17
2018-09-01T05:27:19.351Z,7.20
2018-09-01T05:28:19.585Z,7.21
2018-09-01T05:29:19.818Z,7.35
2018-09-01T05:30:20.050Z,7.43
2018-09-01T05:31:20.292Z,7.48
2018-09-01T05:32:20.530Z,7.58
2018-09-01T05:33:20.766Z,7.32
2018-09-01T05:34:21.002Z,7.35
2018-09-01T05:35:21.241Z,7.24
2018-09-01T05:36:21.503Z,7.25
2018-09-01T05:37:21.721Z,7.30
2018-09-01T05:38:21.949Z,7.42
2018-09-01T05:39:22.188Z,7.55
2018-09-01T05:40:22.423Z,7.55
2018-09-01T05:41:22.662Z,7.52
2018-09-01T05:42:22.899Z,7.68
2018-09-01T05:43:23.137Z,7.87
2018-09-01T05:44:23.373Z,7.92
2018-09-01T05:45:23.611Z,8.00
2018-09-01T05:46:23.843Z,8.20
2018-09-01T05:47:24.073Z,8.40
2018-09-01T05:48:24.317Z,8.53
2018-09-01T05:49:24.554Z,8.53
2018-09-01T05:50:24.795Z,8.65
2018-09-01T05:51:25.030Z,8.66
2018-09-01T05:52:25.262Z,8.68
2018-09-01T05:53:25.520Z,8.63
2018-09-01T05:54:25.734Z,8.63
2018-09-01T05:55:25.973Z,8.76
2018-09-01T05:56:26.214Z,8.91
2018-09-01T05:57:26.447Z,8.92
2018-09-01T05:58:26.686Z,8.99
2018-09-01T05:59:26.923Z,9.15
2018-09-01T06:00:27.176Z,9.26
2018-09-01T06:01:27.400Z,9.32
2018-09-01T06:02:27.634Z,9.43
2018-09-01T06:03:27.880Z,9.50
2018-09-01T06:04:28.109Z,9.57
2018-09-01T06:05:28.348Z,9.61
2018-09-01T06:06:28.734Z,9.65
2018-09-01T06:07:28.834Z,9.57
2018-09-01T06:08:29.057Z,9.66
2018-09-01T06:09:29.329Z,9.60
2018-09-01T06:10:29.530Z,9.54
2018-09-01T06:11:29.775Z,9.61
2018-09-01T06:12:30.007Z,9.74
2018-09-01T06:13:30.238Z,9.76
2018-09-01T06:14:30.474Z,9.86
2018-09-01T06:15:30.715Z,9.84
2018-09-01T06:16:30.963Z,10.02
2018-09-01T06:17:31.234Z,10.01
2018-09-01T06:18:31.422Z,10.17
2018-09-01T06:19:31.653Z,10.29
2018-09-01T06:20:31.897Z,10.32
2018-09-01T06:21:32.144Z,10.30
2018-09-01T06:22:32.360Z,10.36
2018-09-01T06:23:32.596Z,10.51
2018-09-01T06:24:32.840Z,10.52
2018-09-01T06:25:33.073Z,10.48
2018-09-01T06:26:33.316Z,10.45
2018-09-01T06:27:33.543Z,10.36
2018-09-01T06:28:33.787Z,10.29
2018-09-01T06:29:34.026Z,10.20
2018-09-01T06:30:34.263Z,10.02
2018-09-01T06:31:34.499Z,10.05
2018-09-01T06:32:34.743Z,10.04
2018-09-01T06:33:34.975Z,10.34
2018-09-01T06:34:35.260Z,10.60
2018-09-01T06:35:35.448Z,10.66
2018-09-01T06:36:35.702Z,11.24
2018-09-01T06:37:35.955Z,11.95
2018-09-01T06:38:36.151Z,12.90
2018-09-01T06:39:36.388Z,13.52
2018-09-01T06:40:36.632Z,14.09
2018-09-01T06:41:36.866Z,13.87
2018-09-01T06:42:37.107Z,13.19
2018-09-01T06:43:37.356Z,12.75
2018-09-01T06:44:37.579Z,12.37
2018-09-01T06:45:37.834Z,11.95
2018-09-01T06:46:38.046Z,11.57
2018-09-01T06:47:38.287Z,11.46
2018-09-01T06:48:38.535Z,11.47
2018-09-01T06:49:38.745Z,11.39
2018-09-01T06:50:38.984Z,11.37
2018-09-01T06:51:39.254Z,11.27
2018-09-01T06:52:39.458Z,11.29
2018-09-01T06:53:39.701Z,11.24
2018-09-01T06:54:39.937Z,11.28
2018-09-01T06:55:40.177Z,11.29
2018-09-01T06:56:40.415Z,11.88
2018-09-01T06:57:40.654Z,12.75
2018-09-01T06:58:48.538Z,13.05
2018-09-01T06:59:41.193Z,13.32
2018-09-01T07:00:41.443Z,13.77
2018-09-01T07:01:41.672Z,13.82
2018-09-01T07:02:41.909Z,13.36
2018-09-01T07:03:42.149Z,12.83
2018-09-01T07:04:42.405Z,12.45
2018-09-01T07:05:42.634Z,12.16
2018-09-01T07:06:42.870Z,12.05
2018-09-01T07:07:43.103Z,11.88
2018-09-01T07:08:43.376Z,11.86
2018-09-01T07:09:43.583Z,11.94
2018-09-01T07:10:43.821Z,12.89
2018-09-01T07:11:44.057Z,13.85
2018-09-01T07:12:44.296Z,13.89
2018-09-01T07:13:44.541Z,13.55
2018-09-01T07:14:44.772Z,13.41
2018-09-01T07:15:45.015Z,13.15
2018-09-01T07:16:45.248Z,13.14
2018-09-01T07:17:45.485Z,13.25
2018-09-01T07:18:45.726Z,13.15
2018-09-01T07:19:45.964Z,13.01
2018-09-01T07:20:46.206Z,12.95
2018-09-01T07:21:46.443Z,12.86
2018-09-01T07:22:46.686Z,12.68
2018-09-01T07:23:46.922Z,12.64
2018-09-01T07:24:47.160Z,12.54
2018-09-01T07:25:47.401Z,12.82
2018-09-01T07:26:47.642Z,14.15
2018-09-01T07:27:47.878Z,15.41
2018-09-01T07:28:48.122Z,16.85
2018-09-01T07:29:48.353Z,17.93
2018-09-01T07:30:48.895Z,19.18
2018-09-01T07:31:48.842Z,19.56
2018-09-01T07:32:49.081Z,19.78
2018-09-01T07:33:49.321Z,20.62
2018-09-01T07:34:49.561Z,21.03
2018-09-01T07:35:49.804Z,21.01
2018-09-01T07:36:50.043Z,21.07
2018-09-01T07:37:50.290Z,21.42
2018-09-01T07:38:50.527Z,21.92
2018-09-01T07:39:50.770Z,22.28
2018-09-01T07:40:51.010Z,22.27
2018-09-01T07:41:51.256Z,22.94
2018-09-01T07:42:51.502Z,23.00
2018-09-01T07:43:51.742Z,23.15
2018-09-01T07:44:51.992Z,22.54
2018-09-01T07:45:52.225Z,21.19
2018-09-01T07:46:52.473Z,21.31
2018-09-01T07:47:52.720Z,22.17
2018-09-01T07:48:52.971Z,23.25
2018-09-01T07:49:53.215Z,23.87
2018-09-01T07:50:53.461Z,23.68
2018-09-01T07:51:53.708Z,24.15
2018-09-01T07:52:53.953Z,24.60
2018-09-01T07:53:54.199Z,25.05
2018-09-01T07:55:02.073Z,25.43
2018-09-01T07:55:54.807Z,25.57
2018-09-01T07:56:54.997Z,25.73
2018-09-01T07:57:55.234Z,25.21
2018-09-01T07:58:55.478Z,25.45
2018-09-01T07:59:55.725Z,26.09
2018-09-01T08:00:55.976Z,26.26
2018-09-01T08:01:56.221Z,26.33
2018-09-01T08:02:56.472Z,26.85
2018-09-01T08:03:56.716Z,26.99
2018-09-01T08:04:56.978Z,26.94
2018-09-01T08:05:57.217Z,27.21
2018-09-01T08:06:57.447Z,27.36
2018-09-01T08:07:57.695Z,27.27
2018-09-01T08:08:57.934Z,27.32
2018-09-01T08:09:58.195Z,27.60
2018-09-01T08:10:58.431Z,27.69
2018-09-01T08:11:58.688Z,26.99
2018-09-01T08:12:58.928Z,26.52
2018-09-01T08:13:59.380Z,26.15
2018-09-01T08:14:59.423Z,25.76
2018-09-01T08:15:59.674Z,26.23
2018-09-01T08:16:59.939Z,26.05
2018-09-01T08:18:00.176Z,26.54
2018-09-01T08:19:00.429Z,27.25
2018-09-01T08:20:00.679Z,27.32
2018-09-01T08:21:00.923Z,26.69
2018-09-01T08:22:01.175Z,26.13
2018-09-01T08:23:01.423Z,26.69
2018-09-01T08:24:01.670Z,26.33
2018-09-01T08:25:01.922Z,26.58
2018-09-01T08:26:02.217Z,26.63
2018-09-01T08:27:02.420Z,26.26
2018-09-01T08:28:02.673Z,25.57
2018-09-01T08:29:02.922Z,25.46
2018-09-01T08:30:03.173Z,25.54
2018-09-01T08:31:03.421Z,25.88
2018-09-01T08:32:03.673Z,26.36
2018-09-01T08:33:03.923Z,26.25
2018-09-01T08:34:04.175Z,26.60
2018-09-01T08:35:04.427Z,26.52
2018-09-01T08:36:04.680Z,26.80
2018-09-01T08:37:04.934Z,27.25
2018-09-01T08:38:05.187Z,26.97
2018-09-01T08:39:05.432Z,26.50
2018-09-01T08:40:05.688Z,26.36
2018-09-01T08:41:05.928Z,25.99
2018-09-01T08:42:06.184Z,26.66
2018-09-01T08:43:06.437Z,27.22
2018-09-01T08:44:06.685Z,28.02
2018-09-01T08:45:06.935Z,28.11
2018-09-01T08:46:07.189Z,27.43
2018-09-01T08:47:07.442Z,27.75
2018-09-01T08:48:07.694Z,28.15
2018-09-01T08:49:07.947Z,28.40
2018-09-01T08:50:08.198Z,28.66
2018-09-01T08:51:08.445Z,28.76
2018-09-01T08:52:08.700Z,28.51
2018-09-01T08:53:08.953Z,28.62
2018-09-01T08:54:09.204Z,28.93
2018-09-01T08:55:09.456Z,27.84
2018-09-01T08:56:09.708Z,26.21
2018-09-01T08:57:09.959Z,26.54
2018-09-01T08:58:17.834Z,27.22
2018-09-01T08:59:10.518Z,27.25
2018-09-01T09:00:10.773Z,27.74
2018-09-01T09:01:11.017Z,28.27
2018-09-01T09:02:11.269Z,28.85
2018-09-01T09:03:11.521Z,28.06
2018-09-01T09:04:11.772Z,28.12
2018-09-01T09:05:12.025Z,28.59
2018-09-01T09:06:12.280Z,29.33
2018-09-01T09:07:12.531Z,29.00
2018-09-01T09:08:12.783Z,29.21
2018-09-01T09:09:13.036Z,28.93
2018-09-01T09:10:13.288Z,29.00
2018-09-01T09:11:13.539Z,29.41
2018-09-01T09:12:13.793Z,28.67
2018-09-01T09:13:14.046Z,29.02
2018-09-01T09:14:14.297Z,28.89
2018-09-01T09:15:14.549Z,28.64
2018-09-01T09:16:14.802Z,27.78
2018-09-01T09:17:15.055Z,27.55
2018-09-01T09:18:15.308Z,28.34
2018-09-01T09:19:15.563Z,27.37
2018-09-01T09:20:15.814Z,25.54
2018-09-01T09:21:16.067Z,23.91
2018-09-01T09:22:16.319Z,23.22
2018-09-01T09:23:16.574Z,24.25
2018-09-01T09:24:16.826Z,24.68
2018-09-01T09:25:17.077Z,24.67
2018-09-01T09:26:17.326Z,24.78
2018-09-01T09:27:17.585Z,25.61
2018-09-01T09:28:17.832Z,24.40
2018-09-01T09:29:18.084Z,25.70
2018-09-01T09:30:18.336Z,25.98
2018-09-01T09:31:18.587Z,25.02
2018-09-01T09:32:18.839Z,26.09
2018-09-01T09:34:59.908Z,27.69
2018-09-01T09:36:00.161Z,28.09
2018-09-01T09:37:00.415Z,27.81
2018-09-01T09:38:00.662Z,27.44
2018-09-01T09:39:00.913Z,28.39
2018-09-01T09:40:01.165Z,28.73
2018-09-01T09:41:01.419Z,27.88
2018-09-01T09:42:01.791Z,28.46
2018-09-01T09:43:01.923Z,29.02
2018-09-01T09:44:02.171Z,29.73
2018-09-01T09:45:02.425Z,28.76
2018-09-01T09:46:02.679Z,29.26
2018-09-01T09:47:03.058Z,29.74
2018-09-01T09:48:03.344Z,29.82
2018-09-01T09:49:03.601Z,30.07
2018-09-01T09:50:03.879Z,30.20
2018-09-01T09:51:04.142Z,30.29
2018-09-01T09:52:04.391Z,30.57
2018-09-01T09:53:04.766Z,30.72
2018-09-01T09:54:04.921Z,30.83
2018-09-01T09:55:05.176Z,30.26
2018-09-01T09:56:05.428Z,30.51
2018-09-01T09:57:05.684Z,30.83
2018-09-01T09:58:05.997Z,31.53
2018-09-01T09:59:06.191Z,32.19
2018-09-01T10:00:06.443Z,31.75
2018-09-01T10:01:06.748Z,31.70
2018-09-01T10:02:06.953Z,30.97
2018-09-01T10:03:07.206Z,30.58
2018-09-01T10:04:07.460Z,30.46
2018-09-01T10:05:07.813Z,30.69
2018-09-01T10:06:07.969Z,31.02
2018-09-01T10:07:08.222Z,31.29
2018-09-01T10:08:08.477Z,30.97
2018-09-01T10:09:08.731Z,30.45
2018-09-01T10:10:08.984Z,31.17
2018-09-01T10:11:09.276Z,31.31
2018-09-01T10:12:09.496Z,31.32
2018-09-01T10:13:09.750Z,31.17
2018-09-01T10:14:10.005Z,31.47
2018-09-01T10:15:10.259Z,31.46
2018-09-01T10:16:10.515Z,31.16
2018-09-01T10:17:10.769Z,30.72
2018-09-01T10:18:11.027Z,30.77
2018-09-01T10:19:11.278Z,31.31
2018-09-01T10:20:11.644Z,30.64
2018-09-01T10:21:11.795Z,30.54
2018-09-01T10:22:12.045Z,31.06
2018-09-01T10:23:12.302Z,31.10
2018-09-01T10:24:12.558Z,31.41
2018-09-01T10:25:12.813Z,31.95
2018-09-01T10:26:13.071Z,31.89
2018-09-01T10:27:13.325Z,31.70
2018-09-01T10:28:13.577Z,32.03
2018-09-01T10:29:13.833Z,31.96
2018-09-01T10:30:14.088Z,32.21
2018-09-01T10:31:14.345Z,32.37
2018-09-01T10:32:14.601Z,32.14
2018-09-01T10:33:14.855Z,31.62
2018-09-01T10:34:15.115Z,31.76
2018-09-01T10:35:15.368Z,31.69
2018-09-01T10:36:15.624Z,32.08
2018-09-01T10:37:15.878Z,32.33
2018-09-01T10:38:16.138Z,32.14
2018-09-01T10:39:16.390Z,31.61
2018-09-01T10:40:16.646Z,31.12
2018-09-01T10:41:16.901Z,30.84
2018-09-01T10:42:17.156Z,29.94
2018-09-01T10:43:17.420Z,30.11
2018-09-01T10:44:17.666Z,30.32
2018-09-01T10:45:17.945Z,30.94
2018-09-01T10:46:18.215Z,31.23
2018-09-01T10:47:18.467Z,31.43
2018-09-01T10:48:18.722Z,31.53
2018-09-01T10:49:18.979Z,31.99
2018-09-01T10:50:19.233Z,31.68
2018-09-01T10:51:19.487Z,31.66
2018-09-01T10:52:19.743Z,31.58
2018-09-01T10:53:20.000Z,31.51
2018-09-01T10:54:20.255Z,30.86
2018-09-01T10:55:20.512Z,31.10
2018-09-01T10:56:20.767Z,30.84
2018-09-01T10:57:21.258Z,30.42
2018-09-01T10:58:21.268Z,30.22
2018-09-01T10:59:21.587Z,30.05
2018-09-01T11:00:21.783Z,29.68
2018-09-01T11:01:22.040Z,29.41
2018-09-01T11:02:22.293Z,29.23
2018-09-01T11:03:22.551Z,29.68
2018-09-01T11:04:22.805Z,29.92
2018-09-01T11:05:23.088Z,29.85
2018-09-01T11:06:23.316Z,29.26
2018-09-01T11:07:23.575Z,29.19
2018-09-01T11:08:23.826Z,29.46
2018-09-01T11:09:24.082Z,27.59
2018-09-01T11:10:24.337Z,28.39
2018-09-01T11:11:24.592Z,28.52
2018-09-01T11:12:24.849Z,29.28
2018-09-01T11:13:25.105Z,29.52
2018-09-01T11:14:25.358Z,29.76
2018-09-01T11:15:25.613Z,30.05
2018-09-01T11:16:25.870Z,30.32
2018-09-01T11:17:26.121Z,30.10
2018-09-01T11:18:26.377Z,29.83
2018-09-01T11:19:26.631Z,29.55
2018-09-01T11:20:26.887Z,28.93
2018-09-01T11:21:27.143Z,28.40
2018-09-01T11:22:27.398Z,28.67
2018-09-01T11:23:27.652Z,28.70
2018-09-01T11:24:27.910Z,28.73
2018-09-01T11:25:28.161Z,28.92
2018-09-01T11:26:28.416Z,28.98
2018-09-01T11:27:28.704Z,29.00
2018-09-01T11:28:28.924Z,28.73
2018-09-01T11:29:29.182Z,29.45
2018-09-01T11:30:29.488Z,29.98
2018-09-01T11:31:29.690Z,30.24
2018-09-01T11:32:29.945Z,29.65
2018-09-01T11:33:30.200Z,29.11
2018-09-01T11:34:30.467Z,29.41
2018-09-01T11:35:30.713Z,29.39
2018-09-01T11:36:30.962Z,29.87
2018-09-01T11:37:31.216Z,30.70
2018-09-01T11:38:31.472Z,30.45
2018-09-01T11:39:31.726Z,29.87
2018-09-01T11:40:31.980Z,29.06
2018-09-01T11:41:32.233Z,28.15
2018-09-01T11:42:32.518Z,28.76
2018-09-01T11:43:32.744Z,29.18
2018-09-01T11:44:32.997Z,29.86
2018-09-01T11:45:33.251Z,30.60
2018-09-01T11:46:33.510Z,30.61
2018-09-01T11:47:33.765Z,30.70
2018-09-01T11:48:34.030Z,30.95
2018-09-01T11:49:34.315Z,31.88
2018-09-01T11:50:34.569Z,32.15
2018-09-01T11:51:34.823Z,32.19
2018-09-01T11:52:35.084Z,31.44
2018-09-01T11:53:35.384Z,31.43
2018-09-01T11:54:35.588Z,31.73
2018-09-01T11:55:35.841Z,31.65
2018-09-01T11:56:36.096Z,31.56
2018-09-01T11:57:36.355Z,31.29
2018-09-01T11:58:36.637Z,31.53
2018-09-01T11:59:36.877Z,29.87
2018-09-01T12:00:37.122Z,27.74
2018-09-01T12:01:37.379Z,28.54
2018-09-01T12:02:37.634Z,29.26
2018-09-01T12:03:37.908Z,27.04
2018-09-01T12:04:38.153Z,28.46
2018-09-01T12:05:38.402Z,30.02
2018-09-01T12:06:38.657Z,31.41
2018-09-01T12:07:38.912Z,32.01
2018-09-01T12:08:39.166Z,30.69
2018-09-01T12:09:39.424Z,29.57
2018-09-01T12:10:39.675Z,29.95
2018-09-01T12:11:39.959Z,29.52
2018-09-01T12:12:40.187Z,29.97
2018-09-01T12:13:40.439Z,29.78
2018-09-01T12:14:40.694Z,28.98
2018-09-01T12:15:41.005Z,27.97
2018-09-01T12:16:41.202Z,26.85
2018-09-01T12:17:41.456Z,27.32
2018-09-01T12:18:41.711Z,27.99
2018-09-01T12:19:41.965Z,29.26
2018-09-01T12:20:42.219Z,30.02
2018-09-01T12:21:42.473Z,31.26
2018-09-01T12:22:42.727Z,32.22
2018-09-01T12:23:42.981Z,32.66
2018-09-01T12:24:43.235Z,32.37
2018-09-01T12:25:43.488Z,31.70
2018-09-01T12:26:43.745Z,31.56
2018-09-01T12:27:43.999Z,32.00
2018-09-01T12:28:44.253Z,31.35
2018-09-01T12:29:44.508Z,31.96
2018-09-01T12:30:44.763Z,31.44
2018-09-01T12:31:45.016Z,31.78
2018-09-01T12:32:45.271Z,31.93
2018-09-01T12:33:45.527Z,32.22
2018-09-01T12:34:45.781Z,32.23
2018-09-01T12:35:46.037Z,32.69
2018-09-01T12:36:46.292Z,32.56
2018-09-01T12:37:46.547Z,31.89
2018-09-01T12:38:46.803Z,31.56
2018-09-01T12:39:47.058Z,29.68
2018-09-01T12:40:47.315Z,28.67
2018-09-01T12:41:47.576Z,27.70
2018-09-01T12:42:47.825Z,27.41
2018-09-01T12:43:48.085Z,29.55
2018-09-01T12:44:48.335Z,29.82
2018-09-01T12:45:48.592Z,30.19
2018-09-01T12:46:48.846Z,30.60
2018-09-01T12:47:49.099Z,31.35
2018-09-01T12:48:49.355Z,31.78
2018-09-01T12:49:49.609Z,31.32
2018-09-01T12:50:49.864Z,31.10
2018-09-01T12:51:50.119Z,31.76
2018-09-01T12:52:50.374Z,32.19
2018-09-01T12:53:50.643Z,32.57
2018-09-01T12:54:50.897Z,32.60
2018-09-01T12:55:51.152Z,33.03
2018-09-01T12:56:51.407Z,33.09
2018-09-01T12:57:51.661Z,32.59
2018-09-01T12:58:51.918Z,31.95
2018-09-01T12:59:52.173Z,31.61
2018-09-01T13:00:52.634Z,30.31
2018-09-01T13:01:52.684Z,29.71
2018-09-01T13:02:52.939Z,28.48
2018-09-01T13:03:53.195Z,28.74
2018-09-01T13:04:53.450Z,28.90
2018-09-01T13:05:53.705Z,27.92
2018-09-01T13:06:53.961Z,27.55
2018-09-01T13:07:54.265Z,26.88
2018-09-01T13:08:54.474Z,26.63